Time;durP1;ratioP1;P1;durP2;ratioP2;P2;SDS_P1;SDS_P2;PMS_P1;PMS_P2;Temp;Humidity;BMP_temperature;BMP_pressure;BME280_temperature;BME280_humidity;BME280_pressure;Samples;Min_cycle;Max_cycle;Signal;HPM_P1;HPM_P2
2023/12/17 00:01:01;;;;;;;48.42;32.03;;;;;;;8.05;100.00;103659.91;6245624;22;20045;-88
2023/12/17 00:03:27;;;;;;;48.17;30.80;;;;;;;8.05;100.00;103666.03;6244905;22;20429;-89
2023/12/17 00:05:56;;;;;;;44.28;30.38;;;;;;;7.99;100.00;103650.47;6246103;22;20007;-89
2023/12/17 00:08:22;;;;;;;48.17;32.15;;;;;;;7.91;100.00;103637.63;6273409;22;20008;-92
2023/12/17 00:10:54;;;;;;;47.50;31.60;;;;;;;7.91;100.00;103627.06;6243588;22;20007;-89
2023/12/17 00:13:22;;;;;;;47.58;31.98;;;;;;;7.94;100.00;103634.84;6244440;22;20061;-92
2023/12/17 00:15:47;;;;;;;48.20;31.35;;;;;;;8.01;100.00;103645.13;6272295;22;20000;-91
2023/12/17 00:18:13;;;;;;;48.58;32.67;;;;;;;8.02;100.00;103654.75;6244177;22;20170;-87
2023/12/17 00:20:39;;;;;;;46.95;31.00;;;;;;;8.03;100.00;103643.25;6247300;22;20007;-88
2023/12/17 00:23:04;;;;;;;47.05;31.25;;;;;;;7.92;100.00;103626.16;6245698;22;20511;-91
2023/12/17 00:25:30;;;;;;;49.00;31.35;;;;;;;8.04;100.00;103640.53;6244103;22;20106;-89
2023/12/17 00:27:56;;;;;;;44.42;30.48;;;;;;;8.12;100.00;103650.75;6244829;22;20007;-88
2023/12/17 00:30:21;;;;;;;46.90;31.73;;;;;;;7.98;100.00;103626.78;6244345;22;20009;-90
2023/12/17 00:32:47;;;;;;;45.70;31.00;;;;;;;8.14;100.00;103654.16;6244556;22;20017;-89
2023/12/17 00:35:12;;;;;;;46.42;30.02;;;;;;;8.17;100.00;103651.38;6270894;22;20091;-91
2023/12/17 00:37:38;;;;;;;45.58;30.70;;;;;;;8.02;100.00;103623.03;6242950;22;20034;-88
2023/12/17 00:40:03;;;;;;;45.67;30.27;;;;;;;8.15;100.00;103640.00;6271049;22;20010;-91
2023/12/17 00:42:29;;;;;;;48.05;30.88;;;;;;;8.11;100.00;103627.88;6243394;22;20003;-92
2023/12/17 00:44:54;;;;;;;46.10;29.85;;;;;;;8.03;100.00;103619.47;6270597;22;20071;-87
2023/12/17 00:47:19;;;;;;;43.13;29.95;;;;;;;8.13;100.00;103639.22;6272814;22;20430;-87
2023/12/17 00:49:45;;;;;;;45.88;30.17;;;;;;;8.12;100.00;103629.59;6249273;22;20008;-92
2023/12/17 00:52:10;;;;;;;43.42;30.08;;;;;;;8.14;100.00;103632.16;6248575;22;20003;-90
2023/12/17 00:54:35;;;;;;;46.42;29.67;;;;;;;8.13;100.00;103641.00;6249460;22;20011;-93
2023/12/17 00:57:01;;;;;;;45.03;29.63;;;;;;;8.07;100.00;103626.31;6251364;22;20037;-88
2023/12/17 00:59:26;;;;;;;47.22;29.98;;;;;;;8.11;100.00;103627.88;6253066;22;20012;-91
2023/12/17 01:01:51;;;;;;;45.13;29.35;;;;;;;8.12;100.00;103623.44;6280700;22;20057;-91
2023/12/17 01:04:17;;;;;;;45.33;29.77;;;;;;;8.10;100.00;103623.53;6272883;22;20094;-86
2023/12/17 01:06:42;;;;;;;45.33;29.02;;;;;;;8.11;100.00;103611.16;6273299;22;20004;-87
2023/12/17 01:09:10;;;;;;;46.15;29.17;;;;;;;8.10;100.00;103594.47;6272725;22;20008;-86
2023/12/17 01:11:35;;;;;;;44.38;29.48;;;;;;;8.20;100.00;103614.19;6257137;22;20011;-90
2023/12/17 01:14:00;;;;;;;44.38;28.63;;;;;;;8.20;100.00;103606.25;6255306;22;20441;-88
2023/12/17 01:16:26;;;;;;;46.25;30.05;;;;;;;8.17;100.00;103617.00;6251921;22;20071;-88
2023/12/17 01:18:51;;;;;;;46.45;30.48;;;;;;;8.16;100.00;103617.94;6249807;22;20077;-91
2023/12/17 01:21:16;;;;;;;45.67;29.30;;;;;;;8.13;100.00;103612.78;6252556;22;20008;-90
2023/12/17 01:23:42;;;;;;;48.17;29.92;;;;;;;8.10;100.00;103599.75;6251468;22;20019;-92
2023/12/17 01:26:08;;;;;;;45.15;29.88;;;;;;;8.20;100.00;103616.84;6248977;22;20019;-90
2023/12/17 01:28:34;;;;;;;48.13;29.50;;;;;;;8.19;100.00;103617.78;6248727;22;20004;-89
2023/12/17 01:30:59;;;;;;;48.70;30.23;;;;;;;8.17;100.00;103616.13;6252086;22;20003;-90
2023/12/17 01:33:24;;;;;;;46.40;30.30;;;;;;;8.19;100.00;103625.69;6250498;22;20377;-90
2023/12/17 01:35:50;;;;;;;48.88;29.67;;;;;;;8.13;100.00;103620.72;6251233;22;20159;-91
2023/12/17 01:38:15;;;;;;;47.78;30.13;;;;;;;8.13;100.00;103625.16;6251870;22;20007;-90
2023/12/17 01:40:40;;;;;;;47.78;30.55;;;;;;;8.17;100.00;103643.44;6250100;22;20007;-89
2023/12/17 01:43:09;;;;;;;44.42;29.48;;;;;;;8.16;100.00;103631.16;6247202;22;20007;-91
2023/12/17 01:45:34;;;;;;;44.75;27.58;;;;;;;8.17;100.00;103622.28;6275879;22;20014;-93
2023/12/17 01:48:01;;;;;;;45.63;28.08;;;;;;;8.10;100.00;103620.91;6248597;22;20091;-92
2023/12/17 01:50:31;;;;;;;42.75;27.58;;;;;;;8.23;100.00;103633.50;6245715;22;20007;-88
2023/12/17 01:52:57;;;;;;;43.13;27.85;;;;;;;8.18;100.00;103636.34;6245300;22;20007;-90
2023/12/17 01:55:23;;;;;;;43.70;27.58;;;;;;;8.15;100.00;103629.44;6251588;22;20042;-87
2023/12/17 01:57:50;;;;;;;40.67;27.00;;;;;;;8.18;100.00;103639.88;6253427;22;20000;-90
2023/12/17 02:00:18;;;;;;;41.92;27.45;;;;;;;8.14;100.00;103633.00;6250576;22;20012;-92
2023/12/17 02:02:43;;;;;;;43.85;27.65;;;;;;;8.14;100.00;103638.28;6250025;22;20007;-92
2023/12/17 02:05:08;;;;;;;41.83;27.25;;;;;;;8.11;100.00;103635.81;6246064;22;20012;-91
2023/12/17 02:07:34;;;;;;;40.60;26.73;;;;;;;8.18;100.00;103646.91;6247471;22;20584;-89
2023/12/17 02:10:02;;;;;;;42.20;26.88;;;;;;;8.06;100.00;103628.09;6242996;22;20061;-92
2023/12/17 02:12:30;;;;;;;40.25;25.58;;;;;;;8.10;100.00;103641.16;6243899;22;20011;-91
2023/12/17 02:14:59;;;;;;;38.55;25.15;;;;;;;8.25;100.00;103655.41;6245347;22;20011;-88
2023/12/17 02:17:31;;;;;;;40.20;26.08;;;;;;;8.19;100.00;103646.84;6244145;22;20015;-91
2023/12/17 02:19:57;;;;;;;41.60;26.13;;;;;;;8.19;100.00;103644.22;6247635;22;20011;-90
2023/12/17 02:22:28;;;;;;;40.30;26.40;;;;;;;8.18;100.00;103639.88;6247282;22;20007;-89
2023/12/17 02:24:53;;;;;;;39.25;25.35;;;;;;;8.21;100.00;103639.69;6242759;22;20011;-91
2023/12/17 02:27:24;;;;;;;41.03;26.30;;;;;;;8.18;100.00;103637.22;6248207;22;20376;-86
2023/12/17 02:29:51;;;;;;;41.25;26.02;;;;;;;8.18;100.00;103629.28;6242779;22;20011;-90
2023/12/17 02:32:17;;;;;;;38.50;25.08;;;;;;;8.17;100.00;103622.28;6246325;22;20646;-87
2023/12/17 02:34:43;;;;;;;42.05;25.85;;;;;;;8.18;100.00;103618.72;6243091;22;20016;-87
2023/12/17 02:37:10;;;;;;;41.75;25.33;;;;;;;8.16;100.00;103620.59;6243451;22;20003;-91
2023/12/17 02:39:36;;;;;;;44.30;27.52;;;;;;;8.19;100.00;103636.28;6245052;22;20004;-89
2023/12/17 02:42:01;;;;;;;43.42;27.35;;;;;;;8.19;100.00;103636.28;6246660;22;20010;-91
2023/12/17 02:44:26;;;;;;;43.38;26.63;;;;;;;8.14;100.00;103630.34;6245733;22;20012;-88
2023/12/17 02:46:53;;;;;;;43.50;27.25;;;;;;;8.15;100.00;103625.94;6244540;22;20034;-89
2023/12/17 02:49:18;;;;;;;45.10;26.83;;;;;;;8.16;100.00;103631.16;6242850;22;20039;-92
2023/12/17 02:51:44;;;;;;;43.20;26.55;;;;;;;8.05;100.00;103607.06;6243443;22;20069;-89
2023/12/17 02:54:09;;;;;;;42.25;27.00;;;;;;;8.18;100.00;103629.28;6243345;22;20354;-92
2023/12/17 02:56:38;;;;;;;44.95;26.90;;;;;;;8.18;100.00;103629.28;6243864;22;20038;-91
2023/12/17 02:59:12;;;;;;;44.53;26.60;;;;;;;8.17;100.00;103632.00;6247122;22;20074;-93
2023/12/17 03:01:40;;;;;;;43.22;26.55;;;;;;;8.12;100.00;103621.66;6252248;22;20031;-91
2023/12/17 03:04:05;;;;;;;44.85;26.88;;;;;;;8.14;100.00;103626.88;6266153;22;20015;-86
2023/12/17 03:06:31;;;;;;;40.15;25.52;;;;;;;8.08;100.00;103617.44;6270923;22;20023;-87
2023/12/17 03:08:56;;;;;;;40.65;24.58;;;;;;;8.07;100.00;103605.19;6270957;22;20016;-86
2023/12/17 03:11:27;;;;;;;38.55;24.17;;;;;;;8.10;100.00;103615.59;6254889;22;20499;-92
2023/12/17 03:13:52;;;;;;;41.08;23.83;;;;;;;8.02;100.00;103596.63;6253349;22;20004;-91
2023/12/17 03:16:18;;;;;;;38.65;24.38;;;;;;;8.08;100.00;103612.16;6251375;22;20378;-90
2023/12/17 03:18:46;;;;;;;37.80;23.38;;;;;;;8.05;100.00;103602.59;6248840;22;20030;-89
2023/12/17 03:21:11;;;;;;;37.95;22.73;;;;;;;8.11;100.00;103614.69;6247791;22;20004;-89
2023/12/17 03:23:37;;;;;;;37.50;22.15;;;;;;;8.10;100.00;103617.38;6246816;22;20019;-90
2023/12/17 03:26:03;;;;;;;35.80;21.23;;;;;;;8.02;100.00;103596.63;6248294;22;20004;-93
2023/12/17 03:28:28;;;;;;;35.97;21.30;;;;;;;7.99;100.00;103591.50;6274147;22;20078;-91
2023/12/17 03:30:54;;;;;;;32.85;20.20;;;;;;;7.98;100.00;103584.50;6246206;22;20023;-89
2023/12/17 03:33:19;;;;;;;32.53;19.80;;;;;;;8.01;100.00;103590.50;6244653;22;20073;-89
2023/12/17 03:35:44;;;;;;;32.60;19.75;;;;;;;7.94;100.00;103582.00;6247533;22;20014;-89
2023/12/17 03:38:10;;;;;;;33.85;19.17;;;;;;;8.00;100.00;103593.22;6245643;22;20008;-93
2023/12/17 03:40:35;;;;;;;30.40;18.48;;;;;;;8.10;100.00;103605.03;6243270;22;20043;-89
2023/12/17 03:43:01;;;;;;;29.10;17.80;;;;;;;7.97;100.00;103590.69;6270463;22;20004;-88
2023/12/17 03:45:26;;;;;;;27.80;17.65;;;;;;;7.96;100.00;103583.72;6246158;22;20012;-91
2023/12/17 03:47:51;;;;;;;29.17;17.83;;;;;;;7.96;100.00;103581.06;6276501;22;20014;-91
2023/12/17 03:50:19;;;;;;;27.50;17.30;;;;;;;7.90;100.00;103567.22;6247349;22;20011;-92
2023/12/17 03:52:46;;;;;;;26.33;17.10;;;;;;;7.98;100.00;103581.88;6246001;22;20010;-90
2023/12/17 03:55:12;;;;;;;26.27;16.55;;;;;;;8.05;100.00;103586.75;6246771;22;20007;-90
2023/12/17 03:57:37;;;;;;;24.52;16.02;;;;;;;7.99;100.00;103580.94;6244888;22;20034;-88
2023/12/17 04:00:03;;;;;;;23.17;15.65;;;;;;;7.84;100.00;103562.25;6245055;22;20352;-91
2023/12/17 04:02:34;;;;;;;24.92;15.95;;;;;;;8.04;100.00;103590.31;6249730;22;20007;-90
2023/12/17 04:05:00;;;;;;;25.17;15.88;;;;;;;7.83;100.00;103555.25;6249947;22;20027;-90
2023/12/17 04:07:26;;;;;;;25.58;15.55;;;;;;;8.05;100.00;103577.97;6244560;22;20099;-88
2023/12/17 04:09:52;;;;;;;24.85;15.52;;;;;;;7.92;100.00;103554.81;6251529;22;20008;-89
2023/12/17 04:12:18;;;;;;;26.35;15.75;;;;;;;7.94;100.00;103563.50;6254360;22;20015;-89
2023/12/17 04:14:44;;;;;;;23.17;14.88;;;;;;;7.91;100.00;103553.06;6247276;22;20441;-88
2023/12/17 04:17:09;;;;;;;25.23;15.20;;;;;;;7.85;100.00;103548.09;6246319;22;20452;-90
2023/12/17 04:19:34;;;;;;;25.27;15.52;;;;;;;7.84;100.00;103549.03;6276384;22;20008;-89
2023/12/17 04:22:05;;;;;;;25.15;14.98;;;;;;;7.91;100.00;103552.25;6246199;22;20007;-92
2023/12/17 04:24:31;;;;;;;24.27;14.57;;;;;;;7.89;100.00;103549.66;6244012;22;20008;-87
2023/12/17 04:26:56;;;;;;;23.75;14.73;;;;;;;8.01;100.00;103579.06;6244425;22;20042;-92
2023/12/17 04:29:21;;;;;;;23.90;14.52;;;;;;;7.86;100.00;103539.28;6244514;22;20549;-87
2023/12/17 04:31:50;;;;;;;23.40;14.68;;;;;;;7.92;100.00;103553.94;6251150;22;20014;-89
2023/12/17 04:34:15;;;;;;;26.48;15.63;;;;;;;7.90;100.00;103546.09;6247296;22;20024;-89
2023/12/17 04:36:41;;;;;;;23.48;15.20;;;;;;;7.80;100.00;103529.00;6245695;22;20150;-87
2023/12/17 04:39:08;;;;;;;25.48;15.85;;;;;;;7.89;100.00;103546.19;6246583;22;20011;-90
2023/12/17 04:41:33;;;;;;;26.85;15.88;;;;;;;7.85;100.00;103553.38;6244658;22;20011;-90
2023/12/17 04:43:59;;;;;;;25.00;15.73;;;;;;;7.77;100.00;103537.06;6242883;22;20130;-90
2023/12/17 04:46:25;;;;;;;27.13;16.25;;;;;;;7.83;100.00;103543.84;6244883;22;20057;-92
2023/12/17 04:48:53;;;;;;;26.35;16.23;;;;;;;7.86;100.00;103555.13;6245330;22;20014;-90
2023/12/17 04:51:22;;;;;;;27.30;15.95;;;;;;;7.87;100.00;103559.47;6243880;22;20069;-89
2023/12/17 04:53:50;;;;;;;27.83;16.38;;;;;;;7.75;100.00;103536.31;6242979;22;20333;-87
2023/12/17 04:56:18;;;;;;;28.30;16.73;;;;;;;7.76;100.00;103538.00;6244744;22;20007;-92
2023/12/17 04:58:45;;;;;;;26.42;15.90;;;;;;;7.84;100.00;103556.97;6245273;22;20421;-88
2023/12/17 05:01:10;;;;;;;26.20;15.70;;;;;;;7.87;100.00;103564.75;6245616;22;20015;-89
2023/12/17 05:03:36;;;;;;;26.90;16.13;;;;;;;7.83;100.00;103554.41;6259408;22;19992;-86
2023/12/17 05:06:04;;;;;;;29.23;16.52;;;;;;;7.83;100.00;103555.25;6269015;22;20011;-86
2023/12/17 05:08:38;;;;;;;26.85;15.90;;;;;;;7.89;100.00;103556.75;6295574;22;20015;-86
2023/12/17 05:11:08;;;;;;;26.83;16.20;;;;;;;7.80;100.00;103539.56;6256692;22;20478;-89
2023/12/17 05:13:34;;;;;;;27.67;16.27;;;;;;;7.81;100.00;103541.28;6274945;22;20083;-87
2023/12/17 05:15:59;;;;;;;26.90;15.93;;;;;;;7.85;100.00;103552.53;6274688;22;20011;-89
2023/12/17 05:18:27;;;;;;;26.70;16.02;;;;;;;7.82;100.00;103548.28;6244876;22;20007;-87
2023/12/17 05:20:52;;;;;;;25.80;15.73;;;;;;;7.83;100.00;103563.19;6270430;22;20038;-86
2023/12/17 05:23:17;;;;;;;26.20;16.13;;;;;;;7.80;100.00;103555.44;6243237;22;20007;-87
2023/12/17 05:25:43;;;;;;;26.27;16.95;;;;;;;7.78;100.00;103541.41;6241078;22;20117;-90
2023/12/17 05:28:11;;;;;;;26.60;16.35;;;;;;;7.80;100.00;103555.44;6245251;22;20439;-88
2023/12/17 05:30:37;;;;;;;26.75;16.27;;;;;;;7.80;100.00;103550.16;6244371;22;20043;-89
2023/12/17 05:33:05;;;;;;;28.05;16.77;;;;;;;7.86;100.00;103560.41;6243449;22;20381;-88
2023/12/17 05:35:30;;;;;;;28.05;16.38;;;;;;;7.81;100.00;103551.84;6243465;22;20003;-89
2023/12/17 05:38:00;;;;;;;28.13;16.45;;;;;;;7.81;100.00;103557.13;6244858;22;20159;-91
2023/12/17 05:40:26;;;;;;;27.40;16.85;;;;;;;7.77;100.00;103550.28;6245828;22;20212;-90
2023/12/17 05:42:51;;;;;;;27.85;17.40;;;;;;;7.77;100.00;103550.28;6245002;22;20011;-90
2023/12/17 05:45:16;;;;;;;26.75;16.38;;;;;;;7.83;100.00;103555.25;6244091;22;20038;-87
2023/12/17 05:47:41;;;;;;;27.23;16.58;;;;;;;7.77;100.00;103545.00;6243662;22;20431;-88
2023/12/17 05:50:08;;;;;;;27.00;16.70;;;;;;;7.85;100.00;103553.38;6242626;22;20015;-87
2023/12/17 05:52:34;;;;;;;27.08;17.05;;;;;;;7.81;100.00;103557.13;6242833;22;20007;-87
2023/12/17 05:55:02;;;;;;;24.45;16.30;;;;;;;7.78;100.00;103544.06;6242122;22;20093;-90
2023/12/17 05:57:33;;;;;;;26.35;16.60;;;;;;;7.81;100.00;103549.22;6241808;22;20478;-88
2023/12/17 06:00:01;;;;;;;24.08;15.15;;;;;;;7.72;100.00;103539.94;6270722;22;20035;-88
2023/12/17 06:02:26;;;;;;;23.70;14.35;;;;;;;7.67;100.00;103529.63;6266957;22;20012;-88
2023/12/17 06:04:51;;;;;;;23.10;14.45;;;;;;;7.67;100.00;103526.13;6269533;22;20007;-90
2023/12/17 06:07:17;;;;;;;23.92;13.75;;;;;;;7.71;100.00;103532.09;6242677;22;20007;-91
2023/12/17 06:09:42;;;;;;;21.55;13.07;;;;;;;7.53;100.00;103514.44;6242596;22;20008;-92
2023/12/17 06:12:11;;;;;;;18.35;12.00;;;;;;;7.60;100.00;103532.63;6241024;22;20086;-87
2023/12/17 06:14:37;;;;;;;23.33;13.02;;;;;;;7.65;100.00;103541.19;6246108;22;20015;-88
2023/12/17 06:17:03;;;;;;;17.30;11.57;;;;;;;7.69;100.00;103536.59;6245380;22;20007;-90
2023/12/17 06:19:31;;;;;;;18.85;11.77;;;;;;;7.59;100.00;103539.69;6244681;22;20502;-92
2023/12/17 06:21:56;;;;;;;18.75;11.30;;;;;;;7.61;100.00;103540.47;6213075;23;20004;-92
2023/12/17 06:24:22;;;;;;;17.38;10.88;;;;;;;7.67;100.00;103550.75;6213891;23;20008;-89
2023/12/17 06:26:48;;;;;;;16.00;10.70;;;;;;;7.62;100.00;103543.97;6215190;23;20095;-92
2023/12/17 06:29:14;;;;;;;17.85;11.32;;;;;;;7.66;100.00;103554.28;6216682;23;20012;-92
2023/12/17 06:31:40;;;;;;;18.15;11.18;;;;;;;7.67;100.00;103555.16;6215404;23;20613;-91
2023/12/17 06:34:06;;;;;;;18.50;11.55;;;;;;;7.67;100.00;103556.03;6213799;23;20043;-94
2023/12/17 06:36:31;;;;;;;18.50;11.05;;;;;;;7.66;100.00;103549.00;6214225;23;20008;-89
2023/12/17 06:38:56;;;;;;;19.52;11.43;;;;;;;7.66;100.00;103554.28;6215371;23;20434;-89
2023/12/17 06:41:22;;;;;;;19.42;11.68;;;;;;;7.60;100.00;103546.66;6215002;23;20015;-93
2023/12/17 06:43:47;;;;;;;18.73;11.85;;;;;;;7.66;100.00;103542.91;6215310;23;20019;-93
2023/12/17 06:46:16;;;;;;;20.65;12.30;;;;;;;7.57;100.00;103543.34;6215898;23;20059;-88
2023/12/17 06:48:43;;;;;;;19.27;12.50;;;;;;;7.64;100.00;103557.94;6244661;23;20079;-90
2023/12/17 06:51:10;;;;;;;18.77;11.77;;;;;;;7.51;100.00;103533.94;6219501;23;20008;-90
2023/12/17 06:53:36;;;;;;;18.90;11.55;;;;;;;7.50;100.00;103532.22;6217151;23;20030;-90
2023/12/17 06:56:01;;;;;;;23.10;12.82;;;;;;;7.62;100.00;103549.25;6219280;23;20039;-91
2023/12/17 06:58:30;;;;;;;20.95;12.13;;;;;;;7.50;100.00;103532.22;6215880;23;20006;-93
2023/12/17 07:00:55;;;;;;;21.13;13.35;;;;;;;7.47;100.00;103525.31;6220380;23;20016;-92
2023/12/17 07:03:23;;;;;;;22.10;13.60;;;;;;;7.51;100.00;103518.94;6228470;23;20022;-87
2023/12/17 07:05:48;;;;;;;23.00;14.60;;;;;;;7.44;100.00;103508.75;6240387;23;20000;-87
2023/12/17 07:08:14;;;;;;;20.88;13.93;;;;;;;7.58;100.00;103529.19;6239202;22;20075;-87
2023/12/17 07:10:41;;;;;;;24.42;14.85;;;;;;;7.60;100.00;103544.03;6233458;22;20008;-91
2023/12/17 07:13:07;;;;;;;24.15;14.95;;;;;;;7.48;100.00;103528.78;6226468;23;20540;-89
2023/12/17 07:15:32;;;;;;;20.48;13.27;;;;;;;7.54;100.00;103544.31;6237036;23;20004;-89
2023/12/17 07:17:57;;;;;;;19.17;13.15;;;;;;;7.59;100.00;103547.59;6236058;23;20008;-86
2023/12/17 07:20:23;;;;;;;19.27;11.80;;;;;;;7.60;100.00;103527.34;6227689;23;20004;-87
2023/12/17 07:22:48;;;;;;;20.50;12.60;;;;;;;7.51;100.00;103547.13;6221071;23;20004;-90
2023/12/17 07:25:15;;;;;;;19.27;11.57;;;;;;;7.50;100.00;103548.06;6219065;23;20016;-90
2023/12/17 07:27:41;;;;;;;19.52;12.70;;;;;;;7.44;100.00;103536.00;6218151;23;20008;-87
2023/12/17 07:30:07;;;;;;;18.20;12.07;;;;;;;7.51;100.00;103547.13;6216266;23;20099;-91
2023/12/17 07:32:32;;;;;;;19.98;12.15;;;;;;;7.44;100.00;103540.44;6216043;23;20008;-90
2023/12/17 07:34:57;;;;;;;21.23;12.55;;;;;;;7.48;100.00;103542.84;6215972;23;20023;-91
2023/12/17 07:37:23;;;;;;;19.92;12.57;;;;;;;7.40;100.00;103537.94;6240218;23;20011;-91
2023/12/17 07:39:48;;;;;;;21.77;13.68;;;;;;;7.53;100.00;103553.19;6212369;23;20616;-87
2023/12/17 07:42:13;;;;;;;22.08;13.57;;;;;;;7.43;100.00;103558.06;6241689;23;20082;-92
2023/12/17 07:44:39;;;;;;;22.02;13.38;;;;;;;7.47;100.00;103564.03;6212995;23;20094;-87
2023/12/17 07:47:05;;;;;;;21.13;12.98;;;;;;;7.40;100.00;103556.41;6240290;23;20018;-90
2023/12/17 07:49:31;;;;;;;20.85;13.18;;;;;;;7.42;100.00;103563.41;6239860;23;20016;-91
2023/12/17 07:51:56;;;;;;;21.90;13.27;;;;;;;7.39;100.00;103561.75;6213150;23;20453;-90
2023/12/17 07:54:22;;;;;;;19.92;12.55;;;;;;;7.42;100.00;103566.91;6240553;23;20057;-87
2023/12/17 07:56:47;;;;;;;21.95;12.35;;;;;;;7.38;100.00;103549.50;6240157;23;20008;-88
2023/12/17 07:59:13;;;;;;;22.02;13.05;;;;;;;7.35;100.00;103566.34;6212755;23;20441;-91
2023/12/17 08:01:38;;;;;;;19.60;11.95;;;;;;;7.40;100.00;103574.03;6240813;23;20085;-89
2023/12/17 08:04:03;;;;;;;19.63;11.43;;;;;;;7.34;100.00;103564.63;6213044;23;20019;-91
2023/12/17 08:06:29;;;;;;;19.85;11.70;;;;;;;7.40;100.00;103572.25;6213866;23;20012;-90
2023/12/17 08:08:55;;;;;;;18.25;10.82;;;;;;;7.30;100.00;103552.50;6212536;23;20022;-86
2023/12/17 08:11:20;;;;;;;18.05;10.75;;;;;;;7.33;100.00;103584.03;6239920;23;20040;-93
2023/12/17 08:13:48;;;;;;;16.63;10.15;;;;;;;7.40;100.00;103566.97;6212243;23;20036;-87
2023/12/17 08:16:13;;;;;;;16.35;10.20;;;;;;;7.29;100.00;103569.28;6212943;23;20432;-88
2023/12/17 08:18:38;;;;;;;16.73;10.63;;;;;;;7.26;100.00;103572.06;6240109;23;20073;-93
2023/12/17 08:21:04;;;;;;;18.13;10.55;;;;;;;7.20;100.00;103570.56;6212931;23;20347;-89
2023/12/17 08:23:30;;;;;;;17.27;10.80;;;;;;;7.20;100.00;103577.63;6212406;23;20462;-87
2023/12/17 08:25:55;;;;;;;18.20;11.00;;;;;;;7.10;100.00;103562.22;6212759;23;20057;-88
2023/12/17 08:28:21;;;;;;;17.77;11.00;;;;;;;7.13;100.00;103567.38;6213130;23;20404;-89
2023/12/17 08:30:47;;;;;;;17.73;10.63;;;;;;;7.24;100.00;103579.19;6212819;23;20008;-89
2023/12/17 08:33:14;;;;;;;19.25;11.60;;;;;;;7.16;100.00;103581.34;6212744;23;20015;-89
2023/12/17 08:35:39;;;;;;;19.95;10.85;;;;;;;7.11;100.00;103585.03;6239576;23;20345;-87
2023/12/17 08:38:05;;;;;;;20.15;11.88;;;;;;;7.07;100.00;103591.41;6239974;23;20044;-87
2023/12/17 08:40:34;;;;;;;18.65;10.52;;;;;;;7.07;100.00;103578.22;6241472;23;20007;-89
2023/12/17 08:43:01;;;;;;;19.58;11.50;;;;;;;7.05;100.00;103585.31;6239968;23;20093;-89
2023/12/17 08:45:26;;;;;;;18.85;11.73;;;;;;;6.95;100.00;103569.06;6240471;23;20016;-88
2023/12/17 08:47:51;;;;;;;19.45;12.10;;;;;;;7.01;100.00;103578.50;6212302;23;20031;-88
2023/12/17 08:50:17;;;;;;;19.48;12.35;;;;;;;7.11;100.00;103594.75;6239021;23;20035;-87
2023/12/17 08:52:43;;;;;;;21.48;12.60;;;;;;;7.04;100.00;103573.06;6238685;23;20398;-89
2023/12/17 08:55:11;;;;;;;20.48;12.93;;;;;;;6.99;100.00;103580.31;6210970;23;20012;-85
2023/12/17 08:57:37;;;;;;;19.95;12.35;;;;;;;7.01;100.00;103591.69;6211573;23;20381;-85
2023/12/17 09:00:06;;;;;;;18.77;11.70;;;;;;;6.97;100.00;103579.53;6239556;23;20008;-86
2023/12/17 09:02:33;;;;;;;19.77;12.27;;;;;;;6.99;100.00;103591.75;6256338;23;20008;-86
2023/12/17 09:04:58;;;;;;;18.20;11.10;;;;;;;7.04;100.00;103593.28;6263847;23;20056;-86
2023/12/17 09:07:27;;;;;;;19.00;11.73;;;;;;;6.95;100.00;103590.16;6264245;23;20004;-86
2023/12/17 09:09:52;;;;;;;19.38;12.10;;;;;;;6.92;100.00;103574.47;6224212;23;20008;-88
2023/12/17 09:12:17;;;;;;;19.27;11.85;;;;;;;7.00;100.00;103593.44;6246881;23;20319;-87
2023/12/17 09:14:43;;;;;;;21.77;13.35;;;;;;;6.94;100.00;103577.03;6216271;23;20032;-86
2023/12/17 09:17:08;;;;;;;21.83;13.10;;;;;;;6.91;100.00;103577.19;6238760;23;20004;-87
2023/12/17 09:19:34;;;;;;;22.40;13.57;;;;;;;6.99;100.00;103582.97;6239608;23;20423;-89
2023/12/17 09:21:59;;;;;;;21.88;13.38;;;;;;;6.93;100.00;103599.06;6239542;22;20103;-87
2023/12/17 09:24:25;;;;;;;22.75;13.63;;;;;;;6.93;100.00;103591.16;6239892;23;20038;-87
2023/12/17 09:26:50;;;;;;;24.17;13.88;;;;;;;6.82;100.00;103583.72;6238295;23;20423;-89
2023/12/17 09:29:16;;;;;;;24.33;14.15;;;;;;;6.81;100.00;103588.13;6210863;23;20443;-88
2023/12/17 09:31:41;;;;;;;24.95;14.25;;;;;;;6.78;100.00;103590.06;6237552;23;20055;-88
2023/12/17 09:34:07;;;;;;;24.05;14.55;;;;;;;6.80;100.00;103591.69;6210385;23;20816;-84
2023/12/17 09:36:32;;;;;;;25.38;14.93;;;;;;;6.66;100.00;103578.28;6209678;23;20030;-88
2023/12/17 09:38:58;;;;;;;25.00;14.55;;;;;;;6.75;100.00;103598.97;6236900;23;20031;-88
2023/12/17 09:41:25;;;;;;;25.08;15.20;;;;;;;6.68;100.00;103592.25;6210823;23;20010;-89
2023/12/17 09:43:50;;;;;;;27.88;15.57;;;;;;;6.70;100.00;103600.94;6210986;23;20027;-85
2023/12/17 09:46:16;;;;;;;27.90;15.65;;;;;;;6.64;100.00;103585.38;6238957;23;20047;-89
2023/12/17 09:48:41;;;;;;;26.27;15.73;;;;;;;6.59;100.00;103573.28;6211415;23;20012;-89
2023/12/17 09:51:07;;;;;;;27.33;15.98;;;;;;;6.64;100.00;103590.66;6237646;23;20008;-88
2023/12/17 09:53:34;;;;;;;27.27;16.35;;;;;;;6.58;100.00;103582.09;6209725;23;20015;-88
2023/12/17 09:56:00;;;;;;;27.48;16.08;;;;;;;6.57;100.00;103582.19;6211512;23;20004;-89
2023/12/17 09:58:29;;;;;;;29.33;16.55;;;;;;;6.62;100.00;103603.94;6217377;23;20022;-89
2023/12/17 10:04:33;;;;;;;27.90;16.00;;;;;;;6.67;100.00;103601.09;6253146;23;20019;-88
2023/12/17 10:06:59;;;;;;;29.33;16.77;;;;;;;6.65;100.00;103592.41;6217264;23;20012;-90
2023/12/17 10:09:24;;;;;;;28.40;16.35;;;;;;;6.66;100.00;103599.38;6243940;23;20103;-91
2023/12/17 10:11:50;;;;;;;28.70;17.08;;;;;;;6.62;100.00;103585.47;6215186;23;20069;-89
2023/12/17 10:14:23;;;;;;;29.40;17.23;;;;;;;6.58;100.00;103590.00;6242746;23;20109;-90
2023/12/17 10:16:52;;;;;;;29.80;17.48;;;;;;;6.67;100.00;103596.66;6241317;23;20008;-91
